Time;durP1;ratioP1;P1;durP2;ratioP2;P2;SDS_P1;SDS_P2;PMS_P1;PMS_P2;Temp;Humidity;BMP_temperature;BMP_pressure;BME280_temperature;BME280_humidity;BME280_pressure;Samples;Min_cycle;Max_cycle;Signal;HPM_P1;HPM_P2
2021/07/01 00:01:49;;;;;;;39.90;18.10;;;14.40;99.90;;;;;;5094775;28;20202;-77
2021/07/01 00:04:16;;;;;;;40.37;18.80;;;14.40;99.90;;;;;;5094815;28;20286;-78
2021/07/01 00:06:43;;;;;;;42.20;17.70;;;14.30;99.90;;;;;;5094181;28;20310;-78
2021/07/01 00:09:14;;;;;;;37.47;17.30;;;14.30;99.90;;;;;;5094251;28;20290;-78
2021/07/01 00:11:43;;;;;;;35.37;17.10;;;14.40;99.90;;;;;;5094734;28;20206;-78
2021/07/01 00:14:10;;;;;;;41.50;17.53;;;14.40;99.90;;;;;;5094275;28;20274;-78
2021/07/01 00:16:37;;;;;;;36.70;16.67;;;14.40;99.90;;;;;;5094258;28;20194;-77
2021/07/01 00:19:04;;;;;;;34.13;16.20;;;14.40;99.90;;;;;;5094153;28;20277;-78
2021/07/01 00:21:32;;;;;;;38.47;16.93;;;14.40;99.90;;;;;;5091001;28;20202;-78
2021/07/01 00:23:59;;;;;;;37.07;15.93;;;14.50;99.90;;;;;;5094410;28;20282;-78
2021/07/01 00:26:26;;;;;;;35.33;17.03;;;14.50;99.90;;;;;;5093102;28;20261;-78
2021/07/01 00:28:54;;;;;;;33.80;16.77;;;14.50;99.90;;;;;;5094122;28;20274;-78
2021/07/01 00:31:21;;;;;;;28.73;15.47;;;14.50;99.90;;;;;;5094020;28;20195;-78
2021/07/01 00:33:48;;;;;;;31.03;15.17;;;14.50;99.90;;;;;;5094068;28;20308;-79
2021/07/01 00:36:15;;;;;;;37.10;16.00;;;14.40;99.90;;;;;;5093932;28;20205;-79
2021/07/01 00:38:42;;;;;;;36.93;15.83;;;14.40;99.90;;;;;;5094209;28;20203;-78
2021/07/01 00:41:09;;;;;;;35.23;15.47;;;14.40;99.90;;;;;;5093840;28;20372;-78
2021/07/01 00:43:36;;;;;;;35.23;15.10;;;14.40;99.90;;;;;;5093607;28;20560;-78
2021/07/01 00:46:04;;;;;;;30.90;14.43;;;14.40;99.90;;;;;;5093539;28;20639;-78
2021/07/01 00:48:31;;;;;;;33.70;15.53;;;14.40;99.90;;;;;;5093777;28;20186;-78
2021/07/01 00:50:58;;;;;;;34.00;15.00;;;14.30;99.90;;;;;;5093504;28;20279;-78
2021/07/01 00:53:26;;;;;;;34.33;15.33;;;14.30;99.90;;;;;;5093715;28;20278;-78
2021/07/01 00:55:53;;;;;;;33.43;14.47;;;14.20;99.90;;;;;;5091202;28;20321;-78
2021/07/01 00:58:20;;;;;;;33.07;14.43;;;14.20;99.90;;;;;;5093506;28;20290;-79
2021/07/01 01:00:58;;;;;;;40.27;15.67;;;14.10;99.90;;;;;;5093133;28;20676;-78
2021/07/01 01:03:26;;;;;;;35.60;15.30;;;14.10;99.90;;;;;;5093707;28;20289;-77
2021/07/01 01:05:53;;;;;;;28.77;14.37;;;14.20;99.90;;;;;;5090591;28;20248;-78
2021/07/01 01:08:20;;;;;;;29.43;13.83;;;14.20;99.90;;;;;;5093104;28;20301;-78
2021/07/01 01:10:47;;;;;;;28.90;13.50;;;14.20;99.90;;;;;;5093419;28;20566;-79
2021/07/01 01:13:23;;;;;;;29.20;13.43;;;14.20;99.90;;;;;;5092900;28;20279;-79
2021/07/01 01:15:51;;;;;;;31.00;13.87;;;14.30;99.90;;;;;;5093628;28;20273;-78
2021/07/01 01:18:18;;;;;;;30.80;14.17;;;14.30;99.90;;;;;;5096138;28;20226;-78
2021/07/01 01:20:46;;;;;;;30.63;13.63;;;14.30;99.90;;;;;;5095089;28;20264;-78
2021/07/01 01:23:14;;;;;;;31.00;13.77;;;14.30;99.90;;;;;;5095984;28;20639;-79
2021/07/01 01:25:43;;;;;;;40.07;13.30;;;14.20;99.90;;;;;;5094889;28;20262;-78
2021/07/01 01:28:11;;;;;;;33.13;12.90;;;14.30;99.90;;;;;;5094052;28;20207;-78
2021/07/01 01:30:39;;;;;;;28.50;13.50;;;14.30;99.90;;;;;;5093852;28;20691;-77
2021/07/01 01:33:07;;;;;;;29.23;14.13;;;14.30;99.90;;;;;;5093373;28;20738;-79
2021/07/01 01:35:34;;;;;;;28.50;13.20;;;14.30;99.90;;;;;;5093332;28;20279;-77
2021/07/01 01:38:01;;;;;;;33.27;14.13;;;14.20;99.90;;;;;;5091814;28;20737;-78
2021/07/01 01:40:30;;;;;;;34.73;13.83;;;14.30;99.90;;;;;;5093235;28;20252;-78
2021/07/01 01:42:57;;;;;;;26.23;13.27;;;14.30;99.90;;;;;;5092760;28;20222;-78
2021/07/01 01:45:24;;;;;;;30.60;12.90;;;14.30;99.90;;;;;;5092538;28;20202;-78
2021/07/01 01:47:52;;;;;;;29.47;12.90;;;14.30;99.90;;;;;;5092829;28;20215;-78
2021/07/01 01:50:20;;;;;;;30.40;13.57;;;14.20;99.90;;;;;;5092823;28;20195;-79
2021/07/01 01:52:48;;;;;;;27.10;13.47;;;14.30;99.90;;;;;;5092731;28;20260;-77
2021/07/01 01:55:16;;;;;;;30.20;12.87;;;14.30;99.90;;;;;;5092673;28;20202;-78
2021/07/01 01:57:45;;;;;;;31.13;13.23;;;14.30;99.90;;;;;;5092708;28;20223;-79
2021/07/01 02:00:13;;;;;;;34.00;13.13;;;14.30;99.90;;;;;;5088914;28;20322;-78
2021/07/01 02:02:41;;;;;;;29.83;13.53;;;14.20;99.90;;;;;;5092788;28;20270;-78
2021/07/01 02:05:09;;;;;;;36.60;13.33;;;14.20;99.90;;;;;;5092520;28;20187;-77
2021/07/01 02:07:37;;;;;;;33.40;13.57;;;14.20;99.90;;;;;;5093019;28;20219;-78
2021/07/01 02:10:06;;;;;;;35.90;13.77;;;14.20;99.90;;;;;;5092584;28;20293;-78
2021/07/01 02:12:33;;;;;;;30.50;14.20;;;14.20;99.90;;;;;;5094026;28;20263;-78
2021/07/01 02:15:02;;;;;;;35.33;14.23;;;14.30;99.90;;;;;;5092979;28;20282;-78
2021/07/01 02:17:29;;;;;;;29.33;13.27;;;14.30;99.90;;;;;;5091611;28;20590;-77
2021/07/01 02:19:56;;;;;;;33.60;13.90;;;14.20;99.90;;;;;;5092969;28;20244;-79
2021/07/01 02:22:22;;;;;;;35.20;13.93;;;14.30;99.90;;;;;;5092937;28;20645;-78
2021/07/01 02:24:49;;;;;;;31.10;13.87;;;14.20;99.90;;;;;;5092681;28;20223;-78
2021/07/01 02:27:16;;;;;;;35.03;14.03;;;14.20;99.90;;;;;;5092842;28;20227;-78
2021/07/01 02:29:43;;;;;;;33.57;14.23;;;14.30;99.90;;;;;;5092405;28;20234;-77
2021/07/01 02:32:11;;;;;;;33.23;14.60;;;14.30;99.90;;;;;;5092330;28;20293;-78
2021/07/01 02:34:41;;;;;;;27.20;13.37;;;14.30;99.90;;;;;;5092370;28;20740;-78
2021/07/01 02:37:08;;;;;;;32.97;14.63;;;14.30;99.90;;;;;;5092444;28;20615;-77
2021/07/01 02:39:35;;;;;;;33.30;14.53;;;14.30;99.90;;;;;;5092248;28;20199;-78
2021/07/01 02:42:02;;;;;;;30.17;14.20;;;14.30;99.90;;;;;;5092407;28;20264;-78
2021/07/01 02:44:29;;;;;;;32.20;14.63;;;14.30;99.90;;;;;;5092665;28;20388;-77
2021/07/01 02:46:56;;;;;;;33.33;15.30;;;14.20;99.90;;;;;;5092267;28;20226;-78
2021/07/01 02:49:25;;;;;;;35.97;16.13;;;14.20;99.90;;;;;;5093074;28;20632;-78
2021/07/01 02:51:53;;;;;;;44.07;16.70;;;14.20;99.90;;;;;;5096266;28;20229;-79
2021/07/01 02:54:20;;;;;;;36.83;16.00;;;14.20;99.90;;;;;;5096517;28;20199;-78
2021/07/01 02:56:47;;;;;;;36.83;16.57;;;14.10;99.90;;;;;;5096373;28;20194;-77
2021/07/01 02:59:16;;;;;;;39.00;17.17;;;14.10;99.90;;;;;;5096565;28;20285;-78
2021/07/01 03:01:43;;;;;;;39.27;17.67;;;14.10;99.90;;;;;;5096100;28;20192;-78
2021/07/01 03:04:11;;;;;;;31.27;15.73;;;14.10;99.90;;;;;;5096034;28;20291;-78
2021/07/01 03:06:39;;;;;;;33.83;16.17;;;14.10;99.90;;;;;;5095920;28;20191;-78
2021/07/01 03:09:07;;;;;;;38.67;16.20;;;14.20;99.90;;;;;;5096550;28;20317;-78
2021/07/01 03:11:34;;;;;;;31.93;15.00;;;14.10;99.90;;;;;;5096160;28;20356;-78
2021/07/01 03:14:01;;;;;;;36.43;16.27;;;14.20;99.90;;;;;;5096452;28;20289;-77
2021/07/01 03:16:28;;;;;;;40.07;15.63;;;14.10;99.90;;;;;;5096286;28;20622;-78
2021/07/01 03:18:55;;;;;;;34.93;15.87;;;14.30;99.90;;;;;;5096338;28;20302;-78
2021/07/01 03:21:23;;;;;;;40.27;16.30;;;14.20;99.90;;;;;;5095448;28;20729;-76
2021/07/01 03:23:51;;;;;;;40.13;17.70;;;14.20;99.90;;;;;;5095949;28;20307;-78
2021/07/01 03:26:19;;;;;;;38.93;15.30;;;14.20;99.90;;;;;;5095735;28;20254;-78
2021/07/01 03:28:46;;;;;;;31.47;15.33;;;14.20;99.90;;;;;;5095854;28;20227;-78
2021/07/01 03:31:13;;;;;;;38.20;17.27;;;14.20;99.90;;;;;;5095597;28;20195;-78
2021/07/01 03:33:40;;;;;;;35.23;16.90;;;14.20;99.90;;;;;;5095242;28;20293;-78
2021/07/01 03:36:07;;;;;;;37.00;15.97;;;14.20;99.90;;;;;;5095341;28;20613;-77
2021/07/01 03:38:35;;;;;;;37.97;16.40;;;14.30;99.90;;;;;;5107327;28;20277;-77
2021/07/01 03:41:04;;;;;;;35.77;16.23;;;14.40;99.90;;;;;;5115833;28;20198;-77
2021/07/01 03:43:31;;;;;;;35.80;16.60;;;14.40;99.90;;;;;;5115674;27;20715;-77
2021/07/01 03:45:58;;;;;;;38.43;16.73;;;14.40;99.90;;;;;;5115484;28;20194;-78
2021/07/01 03:48:25;;;;;;;39.70;16.20;;;14.30;99.90;;;;;;5115430;28;20230;-76
2021/07/01 03:50:52;;;;;;;32.80;15.43;;;14.30;99.90;;;;;;5115874;28;20277;-77
2021/07/01 03:53:19;;;;;;;32.30;15.27;;;14.30;99.90;;;;;;5115777;28;20240;-77
2021/07/01 03:55:46;;;;;;;38.33;15.37;;;14.30;99.90;;;;;;5115439;28;20256;-77
2021/07/01 03:58:14;;;;;;;44.97;15.90;;;14.20;99.90;;;;;;5115518;28;20201;-77
2021/07/01 04:00:41;;;;;;;27.90;15.23;;;14.30;99.90;;;;;;5114828;28;20201;-78
2021/07/01 04:03:08;;;;;;;36.57;15.20;;;14.20;99.90;;;;;;5115090;28;20190;-79
2021/07/01 04:05:35;;;;;;;38.40;15.77;;;14.30;99.90;;;;;;5115600;28;20226;-77
2021/07/01 04:08:02;;;;;;;36.17;15.40;;;14.20;99.90;;;;;;5115224;28;20226;-78
2021/07/01 04:10:29;;;;;;;37.67;16.40;;;14.20;99.90;;;;;;5115103;28;20285;-76
2021/07/01 04:12:56;;;;;;;29.90;15.33;;;14.30;99.90;;;;;;5115015;28;20263;-78
2021/07/01 04:15:24;;;;;;;31.93;15.03;;;14.30;99.90;;;;;;5114383;28;20290;-78
2021/07/01 04:17:51;;;;;;;37.77;15.30;;;14.20;99.90;;;;;;5114725;28;20293;-77
2021/07/01 04:20:18;;;;;;;39.53;14.90;;;14.30;99.90;;;;;;5115070;28;20199;-78
2021/07/01 04:22:45;;;;;;;29.30;14.03;;;14.30;99.90;;;;;;5114800;28;20308;-77
2021/07/01 04:25:13;;;;;;;32.30;15.03;;;14.30;99.90;;;;;;5115085;28;20230;-77
2021/07/01 04:27:40;;;;;;;27.33;13.93;;;14.30;99.90;;;;;;5114647;28;20316;-78
2021/07/01 04:30:08;;;;;;;30.57;14.83;;;14.40;99.90;;;;;;5114710;28;20198;-77
2021/07/01 04:32:36;;;;;;;34.60;14.60;;;14.50;99.90;;;;;;5114279;28;20677;-78
2021/07/01 04:35:04;;;;;;;31.47;13.97;;;14.50;99.90;;;;;;5114645;28;20249;-77
2021/07/01 04:37:31;;;;;;;27.10;13.00;;;14.50;99.90;;;;;;5111597;28;20229;-77
2021/07/01 04:39:58;;;;;;;28.07;13.10;;;14.50;99.90;;;;;;5093954;28;20191;-77
2021/07/01 04:42:25;;;;;;;28.13;12.83;;;14.60;99.90;;;;;;5094179;28;20285;-77
2021/07/01 04:44:52;;;;;;;27.87;12.43;;;14.60;99.90;;;;;;5093701;28;20286;-77
2021/07/01 04:47:19;;;;;;;28.97;12.53;;;14.60;99.90;;;;;;5093830;28;20238;-78
2021/07/01 04:49:48;;;;;;;26.70;12.17;;;14.70;99.90;;;;;;5093616;28;20735;-78
2021/07/01 04:52:15;;;;;;;24.40;10.93;;;14.70;99.90;;;;;;5094046;28;20286;-77
2021/07/01 04:54:42;;;;;;;27.37;11.73;;;14.70;99.90;;;;;;5093840;28;20535;-77
2021/07/01 04:57:09;;;;;;;25.10;11.37;;;14.80;99.90;;;;;;5093863;28;20194;-77
2021/07/01 04:59:36;;;;;;;20.50;10.57;;;14.90;99.90;;;;;;5093753;28;20227;-78
2021/07/01 05:02:03;;;;;;;22.67;10.97;;;15.00;99.90;;;;;;5080726;28;20195;-77
2021/07/01 05:04:30;;;;;;;23.77;11.53;;;15.10;99.90;;;;;;5093743;28;20289;-77
2021/07/01 05:06:58;;;;;;;22.70;10.90;;;15.10;99.90;;;;;;5093379;28;20294;-77
2021/07/01 05:09:25;;;;;;;19.43;10.37;;;15.20;99.90;;;;;;5093289;28;20786;-77
2021/07/01 05:11:52;;;;;;;23.50;10.63;;;15.20;99.90;;;;;;5093004;28;20294;-77
2021/07/01 05:14:19;;;;;;;18.80;10.40;;;15.20;99.90;;;;;;5093428;28;20199;-79
2021/07/01 05:16:47;;;;;;;25.67;11.40;;;15.10;99.90;;;;;;5093313;28;20278;-77
2021/07/01 05:19:14;;;;;;;20.03;10.63;;;15.00;99.90;;;;;;5093462;28;20215;-77
2021/07/01 05:21:41;;;;;;;21.00;11.07;;;15.10;99.90;;;;;;5090869;28;20294;-77
2021/07/01 05:24:09;;;;;;;20.60;9.83;;;15.20;99.90;;;;;;5096532;28;20277;-77
2021/07/01 05:26:36;;;;;;;22.77;10.10;;;15.20;99.90;;;;;;5113351;28;20285;-78
2021/07/01 05:29:03;;;;;;;21.63;10.37;;;15.20;99.90;;;;;;5103719;28;20250;-77
2021/07/01 05:31:30;;;;;;;26.53;10.40;;;15.20;99.90;;;;;;5092613;28;20230;-77
2021/07/01 05:33:57;;;;;;;24.07;9.77;;;15.20;99.90;;;;;;5092594;28;20375;-77
2021/07/01 05:36:24;;;;;;;24.67;10.37;;;15.20;99.90;;;;;;5092201;28;20612;-78
2021/07/01 05:38:51;;;;;;;19.97;9.60;;;15.20;99.90;;;;;;5092716;28;20583;-79
2021/07/01 05:41:19;;;;;;;19.03;10.17;;;15.20;99.90;;;;;;5092177;28;20214;-78
2021/07/01 05:43:46;;;;;;;21.77;9.60;;;15.20;99.90;;;;;;5091908;28;20610;-76
2021/07/01 05:46:13;;;;;;;20.80;9.90;;;15.00;99.90;;;;;;5092093;28;20191;-77
2021/07/01 05:48:41;;;;;;;23.63;10.43;;;15.00;99.90;;;;;;5092671;28;20254;-77
2021/07/01 05:51:11;;;;;;;28.63;11.47;;;14.90;99.90;;;;;;5092038;28;20205;-78
2021/07/01 05:53:44;;;;;;;22.60;11.37;;;14.70;99.90;;;;;;5091809;28;20202;-79
2021/07/01 05:56:11;;;;;;;25.47;10.50;;;14.80;99.90;;;;;;5090040;28;20223;-77
2021/07/01 05:58:39;;;;;;;22.03;9.43;;;14.80;99.90;;;;;;5090867;28;20277;-78
2021/07/01 06:01:07;;;;;;;20.90;9.93;;;14.80;99.90;;;;;;5091487;28;20199;-77
2021/07/01 06:03:35;;;;;;;22.53;10.50;;;14.80;99.90;;;;;;5090843;28;20222;-77
2021/07/01 06:06:11;;;;;;;22.60;10.37;;;14.80;99.90;;;;;;5091036;28;20728;-77
2021/07/01 06:08:38;;;;;;;20.17;9.57;;;14.70;99.90;;;;;;5091622;28;20301;-78
2021/07/01 06:11:07;;;;;;;22.00;10.07;;;14.70;99.90;;;;;;5091772;28;20282;-78
2021/07/01 06:13:37;;;;;;;20.90;10.03;;;14.80;99.90;;;;;;5091798;28;20191;-78
2021/07/01 06:16:10;;;;;;;26.63;10.50;;;14.80;99.90;;;;;;5089518;28;20633;-77
2021/07/01 06:18:39;;;;;;;22.63;9.97;;;14.80;99.90;;;;;;5091202;28;20222;-78
2021/07/01 06:21:06;;;;;;;31.33;10.00;;;14.90;99.90;;;;;;5091372;28;20282;-77
2021/07/01 06:23:33;;;;;;;23.90;10.40;;;14.80;99.90;;;;;;5073786;28;20286;-78
2021/07/01 06:26:00;;;;;;;19.87;9.47;;;15.00;99.90;;;;;;5094717;28;20622;-76
2021/07/01 06:28:27;;;;;;;18.73;9.40;;;15.10;99.90;;;;;;5095852;28;20241;-76
2021/07/01 06:30:54;;;;;;;15.90;9.27;;;15.30;99.90;;;;;;5096117;28;20290;-76
2021/07/01 06:33:23;;;;;;;22.83;9.57;;;15.40;99.90;;;;;;5096284;28;20248;-78
2021/07/01 06:35:51;;;;;;;19.73;9.03;;;15.50;99.90;;;;;;5095934;28;20673;-77
2021/07/01 06:38:23;;;;;;;19.70;8.30;;;15.60;99.90;;;;;;5096271;28;20615;-77
2021/07/01 06:40:52;;;;;;;17.43;8.50;;;15.70;99.90;;;;;;5096084;28;20282;-78
2021/07/01 06:43:21;;;;;;;14.23;7.07;;;15.60;99.90;;;;;;5095815;28;20190;-77
2021/07/01 06:45:50;;;;;;;14.93;7.43;;;15.80;99.90;;;;;;5096417;28;20282;-77
2021/07/01 06:48:17;;;;;;;15.30;6.93;;;15.80;99.90;;;;;;5116346;28;20205;-78
2021/07/01 06:50:46;;;;;;;13.33;6.60;;;15.80;99.90;;;;;;5107409;28;20290;-77
2021/07/01 06:53:14;;;;;;;13.53;7.07;;;15.60;99.90;;;;;;5094424;28;20245;-77
2021/07/01 06:55:44;;;;;;;18.83;7.30;;;15.60;99.90;;;;;;5095340;28;20282;-77
2021/07/01 06:58:12;;;;;;;20.10;7.30;;;15.40;99.90;;;;;;5095452;28;20215;-78
2021/07/01 07:00:40;;;;;;;15.70;7.50;;;15.40;99.90;;;;;;5107069;28;20731;-77
2021/07/01 07:03:07;;;;;;;15.60;6.90;;;15.00;99.90;;;;;;5100119;28;20648;-77
2021/07/01 07:05:35;;;;;;;16.07;6.87;;;15.10;99.90;;;;;;5094612;28;20241;-77
2021/07/01 07:08:05;;;;;;;16.10;7.37;;;15.20;99.90;;;;;;5095989;28;20195;-77
2021/07/01 07:10:32;;;;;;;19.00;8.47;;;15.40;99.90;;;;;;5109151;28;20218;-77
2021/07/01 07:12:59;;;;;;;22.67;8.90;;;15.60;99.90;;;;;;5098346;28;20234;-78
2021/07/01 07:15:28;;;;;;;23.07;8.97;;;15.90;99.90;;;;;;5096269;28;20309;-78
2021/07/01 07:18:01;;;;;;;29.77;9.07;;;16.10;99.90;;;;;;5101889;28;20202;-77
2021/07/01 07:20:31;;;;;;;26.30;9.30;;;16.30;99.90;;;;;;5098725;28;20589;-77
2021/07/01 07:22:59;;;;;;;21.90;7.63;;;16.40;99.90;;;;;;5108681;28;20301;-79
2021/07/01 07:25:28;;;;;;;17.67;6.70;;;16.50;99.90;;;;;;5095013;28;20229;-77
2021/07/01 07:28:03;;;;;;;17.87;6.60;;;16.50;99.90;;;;;;5108712;28;20568;-77
2021/07/01 07:30:31;;;;;;;19.90;6.23;;;16.60;99.90;;;;;;5096656;28;20297;-76
2021/07/01 07:33:02;;;;;;;17.67;6.37;;;16.70;99.90;;;;;;5109041;28;20213;-77
2021/07/01 07:35:29;;;;;;;11.67;5.70;;;16.70;99.90;;;;;;5094533;28;20503;-77
2021/07/01 07:37:56;;;;;;;13.30;5.40;;;16.90;99.90;;;;;;5100289;28;20289;-77
2021/07/01 07:40:23;;;;;;;13.17;5.83;;;17.10;99.90;;;;;;5099153;28;20241;-79
2021/07/01 07:42:51;;;;;;;14.03;5.43;;;17.10;99.90;;;;;;5105167;28;20194;-78
2021/07/01 07:45:19;;;;;;;11.27;5.70;;;17.20;99.90;;;;;;5102909;28;20214;-77
2021/07/01 07:47:46;;;;;;;14.07;5.80;;;17.30;99.90;;;;;;5108137;28;20221;-77
2021/07/01 07:50:14;;;;;;;12.50;5.77;;;17.50;99.90;;;;;;5093870;28;20657;-76
2021/07/01 07:52:46;;;;;;;9.97;5.87;;;17.40;99.90;;;;;;5113709;28;20281;-77
2021/07/01 07:55:16;;;;;;;15.40;5.70;;;17.60;99.90;;;;;;5109733;28;20195;-78
2021/07/01 07:57:45;;;;;;;10.60;5.53;;;17.70;99.90;;;;;;5094912;28;20290;-77
2021/07/01 08:00:15;;;;;;;14.90;5.53;;;17.70;99.90;;;;;;5094674;28;20202;-77
2021/07/01 08:02:47;;;;;;;13.20;5.30;;;17.80;99.90;;;;;;5093656;28;20217;-77
2021/07/01 08:05:16;;;;;;;11.50;5.40;;;17.90;99.90;;;;;;5088131;28;20203;-77
2021/07/01 08:07:44;;;;;;;10.40;5.30;;;17.80;99.90;;;;;;5094101;28;20199;-76
2021/07/01 08:10:15;;;;;;;11.07;4.90;;;17.80;99.90;;;;;;5091063;28;20301;-78
2021/07/01 08:12:44;;;;;;;11.87;4.77;;;17.80;99.90;;;;;;5093404;28;20195;-78
2021/07/01 08:15:14;;;;;;;10.37;4.40;;;18.00;99.90;;;;;;5106660;28;20636;-78
2021/07/01 08:17:43;;;;;;;11.87;4.37;;;18.00;99.90;;;;;;5097460;28;20261;-79
2021/07/01 08:20:12;;;;;;;10.90;4.70;;;17.80;99.90;;;;;;5090700;28;20207;-77
2021/07/01 08:22:42;;;;;;;14.40;5.10;;;18.00;99.90;;;;;;5097566;28;20199;-77
2021/07/01 08:25:10;;;;;;;12.27;4.97;;;18.20;99.90;;;;;;5093685;28;20282;-80
2021/07/01 08:27:38;;;;;;;10.23;4.93;;;18.30;99.90;;;;;;5095822;28;20281;-81
2021/07/01 08:30:06;;;;;;;12.80;4.83;;;18.20;99.90;;;;;;5094089;28;20303;-79
2021/07/01 08:32:36;;;;;;;12.00;4.40;;;18.10;99.90;;;;;;5099239;28;20600;-80
2021/07/01 08:35:04;;;;;;;9.07;4.07;;;18.20;99.90;;;;;;5097565;28;20198;-80
2021/07/01 08:37:32;;;;;;;10.27;4.10;;;18.20;99.90;;;;;;5099720;28;20610;-81
2021/07/01 08:40:00;;;;;;;9.17;4.20;;;18.10;99.90;;;;;;5096817;28;20668;-80
2021/07/01 08:42:33;;;;;;;8.47;3.63;;;18.20;99.90;;;;;;5107264;28;20202;-79
2021/07/01 08:45:03;;;;;;;10.67;3.97;;;18.30;99.90;;;;;;5088211;27;20282;-80
2021/07/01 08:47:32;;;;;;;11.10;4.00;;;18.20;99.90;;;;;;5106495;28;20226;-79
2021/07/01 08:50:02;;;;;;;12.60;4.90;;;18.30;99.90;;;;;;5094823;28;20242;-79
2021/07/01 08:52:31;;;;;;;12.17;4.20;;;18.40;99.90;;;;;;5093617;28;20245;-79
2021/07/01 08:55:00;;;;;;;9.63;3.90;;;18.50;99.90;;;;;;5094041;28;20285;-78
2021/07/01 08:57:29;;;;;;;14.17;4.40;;;18.60;99.90;;;;;;5094088;28;20239;-78
2021/07/01 09:00:08;;;;;;;12.53;4.70;;;18.90;99.90;;;;;;5094038;28;20260;-78
2021/07/01 09:02:38;;;;;;;13.50;4.27;;;18.90;99.90;;;;;;5093994;28;20301;-79
2021/07/01 09:05:12;;;;;;;14.87;4.40;;;19.00;99.90;;;;;;5093769;28;20199;-78
2021/07/01 09:07:40;;;;;;;10.30;3.77;;;19.10;99.90;;;;;;5094078;28;20628;-78
2021/07/01 09:10:12;;;;;;;17.83;4.53;;;19.10;99.90;;;;;;5093519;28;20257;-79
2021/07/01 09:12:43;;;;;;;14.77;4.50;;;19.10;99.90;;;;;;5093914;28;20195;-79
2021/07/01 09:15:11;;;;;;;9.00;4.07;;;19.00;99.90;;;;;;5094286;28;20213;-79
2021/07/01 09:17:47;;;;;;;17.73;5.00;;;19.10;99.90;;;;;;5093931;28;20247;-79
2021/07/01 09:20:20;;;;;;;11.27;4.60;;;19.10;99.90;;;;;;5094254;28;20191;-80
2021/07/01 09:22:48;;;;;;;12.33;4.77;;;19.00;99.90;;;;;;5093701;28;20252;-78
2021/07/01 09:25:15;;;;;;;11.60;4.70;;;19.30;99.90;;;;;;5093680;28;20201;-79
2021/07/01 09:27:44;;;;;;;9.93;4.60;;;19.20;99.90;;;;;;5093748;28;20257;-79
2021/07/01 09:30:12;;;;;;;7.60;4.20;;;19.30;99.90;;;;;;5093775;28;20225;-79
2021/07/01 09:32:41;;;;;;;11.93;4.37;;;19.40;99.90;;;;;;5093347;28;20199;-79
2021/07/01 09:35:10;;;;;;;8.30;3.90;;;19.30;99.90;;;;;;5093432;28;20214;-79
2021/07/01 09:37:42;;;;;;;7.30;4.13;;;19.40;99.90;;;;;;5093635;28;20197;-79
2021/07/01 09:40:11;;;;;;;8.57;4.40;;;19.50;99.90;;;;;;5093321;28;20665;-78
2021/07/01 09:42:38;;;;;;;13.80;4.37;;;19.60;99.90;;;;;;5093167;28;20226;-78
2021/07/01 09:45:08;;;;;;;16.67;4.47;;;19.90;99.90;;;;;;5092038;28;20187;-81
2021/07/01 09:47:38;;;;;;;11.00;4.60;;;20.00;99.90;;;;;;5089912;28;20195;-80
2021/07/01 09:50:06;;;;;;;12.17;4.63;;;19.90;99.90;;;;;;5092681;28;20313;-79
2021/07/01 09:52:35;;;;;;;11.80;5.00;;;19.90;99.90;;;;;;5093068;28;20278;-79
2021/07/01 09:55:05;;;;;;;9.43;4.00;;;20.00;99.90;;;;;;5092799;28;20616;-79
2021/07/01 09:57:37;;;;;;;8.27;4.37;;;20.20;99.90;;;;;;5089775;28;20617;-78
2021/07/01 10:00:07;;;;;;;10.23;4.40;;;19.90;99.90;;;;;;5092583;28;20219;-78
2021/07/01 10:02:34;;;;;;;10.73;4.30;;;20.00;99.90;;;;;;5092233;28;20286;-78
2021/07/01 10:05:02;;;;;;;8.60;4.03;;;20.00;99.90;;;;;;5092683;28;20260;-78
2021/07/01 10:07:29;;;;;;;11.37;4.30;;;19.70;99.90;;;;;;5092937;28;20245;-79
2021/07/01 10:09:58;;;;;;;9.17;4.07;;;20.00;99.90;;;;;;5091875;28;20305;-79
2021/07/01 10:12:27;;;;;;;12.63;4.90;;;20.10;99.90;;;;;;5091991;28;20221;-78
2021/07/01 10:14:56;;;;;;;11.23;4.47;;;20.30;99.90;;;;;;5092026;28;20233;-80
2021/07/01 10:17:24;;;;;;;7.23;4.10;;;20.30;99.90;;;;;;5090883;28;20214;-78
2021/07/01 10:20:04;;;;;;;11.63;5.00;;;20.00;99.90;;;;;;5091779;28;20345;-81
2021/07/01 10:22:38;;;;;;;13.17;5.30;;;20.30;99.90;;;;;;5092754;28;20228;-82
2021/07/01 10:25:08;;;;;;;10.80;4.53;;;20.70;99.90;;;;;;5092495;28;20325;-79
2021/07/01 10:27:41;;;;;;;7.93;4.20;;;21.00;99.90;;;;;;5092496;28;20293;-79
2021/07/01 10:30:15;;;;;;;11.80;5.23;;;21.30;99.90;;;;;;5072402;28;20269;-78
2021/07/01 10:32:44;;;;;;;9.30;4.07;;;21.30;99.90;;;;;;5072347;28;20679;-78
2021/07/01 10:35:25;;;;;;;9.40;4.23;;;21.50;99.90;;;;;;5072205;28;20240;-78
2021/07/01 10:38:04;;;;;;;11.73;4.60;;;21.60;99.90;;;;;;5073875;28;20260;-78
2021/07/01 10:40:32;;;;;;;10.90;4.50;;;21.60;99.90;;;;;;5092797;28;20219;-78
2021/07/01 10:43:01;;;;;;;11.93;4.53;;;21.90;99.90;;;;;;5092406;28;20332;-80
2021/07/01 10:45:28;;;;;;;10.25;4.38;;;21.60;99.90;;;;;;5092397;28;20223;-81
2021/07/01 10:48:14;;;;;;;9.02;4.15;;;21.50;99.90;;;;;;5093085;28;20255;-78
2021/07/01 10:50:42;;;;;;;9.48;3.95;;;21.90;99.90;;;;;;5092979;28;20211;-78
2021/07/01 10:53:29;;;;;;;10.27;4.57;;;22.10;99.90;;;;;;5092949;28;20230;-82
2021/07/01 10:55:59;;;;;;;13.98;4.40;;;21.80;99.90;;;;;;5104508;28;20182;-79
2021/07/01 10:58:29;;;;;;;9.75;4.10;;;22.00;99.90;;;;;;5114290;28;20255;-82
2021/07/01 11:00:56;;;;;;;11.75;4.45;;;21.20;99.90;;;;;;5111417;28;20194;-79
2021/07/01 11:03:26;;;;;;;9.30;4.75;;;21.10;99.90;;;;;;5115919;28;20191;-81
2021/07/01 11:05:54;;;;;;;12.83;4.80;;;21.40;99.90;;;;;;5112499;28;20274;-78
2021/07/01 11:08:25;;;;;;;12.00;4.95;;;21.70;99.90;;;;;;5110761;28;20210;-82
2021/07/01 11:10:53;;;;;;;9.65;4.60;;;21.90;99.90;;;;;;5095120;28;20681;-82
2021/07/01 11:13:23;;;;;;;15.70;5.03;;;21.90;99.90;;;;;;5099352;28;20649;-78
2021/07/01 11:16:10;;;;;;;8.97;4.70;;;21.90;99.90;;;;;;5097565;28;20538;-81
2021/07/01 11:18:39;;;;;;;8.23;4.53;;;22.20;99.90;;;;;;5095750;28;20199;-78
2021/07/01 11:21:18;;;;;;;13.52;5.55;;;22.70;99.90;;;;;;5095680;28;20244;-78
2021/07/01 11:23:46;;;;;;;10.27;4.82;;;22.30;99.90;;;;;;5098958;28;20720;-79
2021/07/01 11:26:30;;;;;;;10.85;5.38;;;22.30;99.90;;;;;;5095058;28;20226;-79
2021/07/01 11:28:59;;;;;;;11.18;5.18;;;22.30;99.90;;;;;;5088874;28;20273;-78
2021/07/01 11:31:38;;;;;;;12.05;5.70;;;22.30;99.90;;;;;;5096897;28;20306;-80
2021/07/01 11:34:07;;;;;;;11.02;4.97;;;22.50;99.90;;;;;;5090337;28;20586;-79
2021/07/01 11:36:34;;;;;;;12.27;5.30;;;22.70;99.90;;;;;;5098876;28;20199;-80
2021/07/01 11:39:07;;;;;;;12.38;5.20;;;22.90;99.90;;;;;;5104744;27;20630;-81
2021/07/01 11:41:35;;;;;;;13.27;5.53;;;23.20;99.90;;;;;;5095337;28;20229;-78
2021/07/01 11:44:03;;;;;;;12.43;5.43;;;23.00;99.90;;;;;;5095243;28;20218;-78
2021/07/01 11:46:30;;;;;;;10.30;4.47;;;22.60;99.90;;;;;;5093128;28;20379;-79
2021/07/01 11:48:59;;;;;;;10.73;5.00;;;22.70;99.90;;;;;;5086413;28;20254;-78
2021/07/01 11:51:27;;;;;;;12.75;5.25;;;23.00;99.90;;;;;;5094380;28;20799;-78
2021/07/01 11:53:54;;;;;;;10.25;5.00;;;23.20;99.90;;;;;;5093744;28;20191;-78
2021/07/01 11:56:23;;;;;;;16.13;5.78;;;23.20;99.90;;;;;;5094869;28;20201;-78
2021/07/01 11:58:50;;;;;;;14.68;6.05;;;23.50;99.90;;;;;;5094410;28;20654;-77
2021/07/01 12:01:18;;;;;;;14.82;6.32;;;23.40;99.90;;;;;;5087429;28;20199;-79
2021/07/01 12:03:48;;;;;;;12.07;5.80;;;23.20;99.90;;;;;;5085395;28;20673;-78
2021/07/01 12:06:30;;;;;;;9.82;5.68;;;22.70;99.90;;;;;;5095516;28;20190;-78
2021/07/01 12:08:57;;;;;;;12.93;5.78;;;22.50;99.90;;;;;;5093515;28;20187;-79
2021/07/01 12:11:24;;;;;;;14.75;6.13;;;22.50;99.90;;;;;;5093715;28;20219;-81
2021/07/01 12:13:51;;;;;;;21.70;6.03;;;22.50;99.90;;;;;;5097716;28;20213;-80
2021/07/01 12:16:19;;;;;;;16.05;5.88;;;22.00;99.90;;;;;;5079229;28;20617;-77
2021/07/01 12:18:55;;;;;;;12.57;5.32;;;22.20;99.90;;;;;;5097345;28;20641;-78
2021/07/01 12:21:26;;;;;;;12.50;5.45;;;22.30;99.90;;;;;;5093002;28;20238;-80
2021/07/01 12:23:54;;;;;;;9.95;4.78;;;22.20;99.90;;;;;;5093358;28;20191;-77
2021/07/01 12:26:42;;;;;;;11.60;5.22;;;22.50;99.90;;;;;;5094588;28;20660;-79
2021/07/01 12:29:12;;;;;;;15.52;5.28;;;22.70;99.90;;;;;;5096266;28;20276;-78
2021/07/01 12:31:40;;;;;;;11.13;5.85;;;22.80;99.90;;;;;;5099393;28;20249;-79
2021/07/01 12:34:09;;;;;;;9.80;5.22;;;22.70;99.90;;;;;;5094402;28;20230;-79
2021/07/01 12:36:40;;;;;;;13.85;5.60;;;22.50;99.90;;;;;;5094229;28;20289;-77
2021/07/01 12:39:29;;;;;;;13.23;5.63;;;22.70;99.90;;;;;;5094553;28;20180;-77
2021/07/01 12:42:18;;;;;;;10.02;5.25;;;22.80;99.90;;;;;;5092654;28;20205;-78